Observation data for Ralls on 11/07/2019      Previous  Date       Current Mesonet Observations  Soil Data  Daily Summary Page  Observations in Plain Language
KRLS 070600Z 26003KT 14/13 A3019 RMK A01 T01390130  RH  098%=      5-min Rain = 0
KRLS 070605Z 17001KT 14/13 A3017 RMK A01 T01380130  RH  098%=      5-min Rain = 0.02
KRLS 070610Z 18001KT 14/13 A3017 RMK A01 T01380130  RH  098%=      5-min Rain = 0.01
KRLS 070615Z 19002KT 14/13 A3017 RMK A01 T01380130  RH  098%=      5-min Rain = 0
KRLS 070620Z 21002KT 14/13 A3017 RMK A01 T01380129  RH  098%=      5-min Rain = 0
KRLS 070625Z 23002KT 14/13 A3018 RMK A01 T01370128  RH  098%=      5-min Rain = 0.01
KRLS 070630Z 22003KT 14/13 A3018 RMK A01 T01370128  RH  098%=      5-min Rain = 0
KRLS 070635Z 22002KT 14/13 A3017 RMK A01 T01360128  RH  099%=      5-min Rain = 0
KRLS 070640Z 22001KT 14/13 A3016 RMK A01 T01360128  RH  099%=      5-min Rain = 0
KRLS 070645Z 21000KT 14/13 A3015 RMK A01 T01360128  RH  099%=      5-min Rain = 0
KRLS 070650Z 11001KT 14/13 A3014 RMK A01 T01360127  RH  099%=      5-min Rain = 0
KRLS 070655Z 10003KT 13/13 A3013 RMK A01 T01340126  RH  099%=      5-min Rain = 0
KRLS 070700Z 10002KT 13/13 A3014 RMK A01 T01330125  RH  099%=      5-min Rain = 0
KRLS 070705Z 27001KT 13/12 A3016 RMK A01 T01330124  RH  099%=      5-min Rain = 0
KRLS 070710Z 26002KT 13/12 A3016 RMK A01 T01320124  RH  099%=      5-min Rain = 0
KRLS 070715Z 26002KT 13/12 A3017 RMK A01 T01320124  RH  099%=      5-min Rain = 0
KRLS 070720Z 22001KT 13/13 A3017 RMK A01 T01330125  RH  099%=      5-min Rain = 0
KRLS 070725Z 23001KT 13/13 A3016 RMK A01 T01330125  RH  099%=      5-min Rain = 0
KRLS 070730Z 27001KT 13/12 A3016 RMK A01 T01320124  RH  099%=      5-min Rain = 0
KRLS 070735Z 28000KT 13/12 A3015 RMK A01 T01310123  RH  099%=      5-min Rain = 0
KRLS 070740Z 02003G13KT 13/12 A3015 RMK A01 T01310123  RH  099%=      5-min Rain = 0
KRLS 070745Z 01015G22KT 12/11 A3017 RMK A01 T01200112  RH  098%=      5-min Rain = 0
KRLS 070750Z 00018G24KT 09/09 A3018 RMK A01 T00940086  RH  097%=      5-min Rain = 0
KRLS 070755Z 01017G23KT 09/08 A302 RMK A01 T00860078  RH  097%=      5-min Rain = 0
KRLS 070800Z 01017G24KT 08/07 A3021 RMK A01 T00810072  RH  097%=      5-min Rain = 0
KRLS 070805Z 35017G24KT 08/07 A3022 RMK A01 T00770067  RH  096%=      5-min Rain = 0
KRLS 070810Z 36018G25KT 07/06 A3023 RMK A01 T00690057  RH  094%=      5-min Rain = 0
KRLS 070815Z 36016G23KT 07/05 A3023 RMK A01 T00660051  RH  093%=      5-min Rain = 0
KRLS 070820Z 36018G24KT 06/05 A3024 RMK A01 T00610045  RH  091%=      5-min Rain = 0
KRLS 070825Z 36018G24KT 06/04 A3024 RMK A01 T00590042  RH  091%=      5-min Rain = 0
KRLS 070830Z 36018G23KT 06/04 A3025 RMK A01 T00560039  RH  091%=      5-min Rain = 0
KRLS 070835Z 36019G26KT 05/04 A3026 RMK A01 T00540037  RH  091%=      5-min Rain = 0
KRLS 070840Z 35018G24KT 05/04 A3026 RMK A01 T00510036  RH  091%=      5-min Rain = 0
KRLS 070845Z 35019G26KT 05/03 A3026 RMK A01 T00490034  RH  092%=      5-min Rain = 0
KRLS 070850Z 35020G27KT 05/03 A3025 RMK A01 T00460031  RH  092%=      5-min Rain = 0
KRLS 070855Z 35021G27KT 04/03 A3025 RMK A01 T00430029  RH  092%=      5-min Rain = 0
KRLS 070900Z 35020G26KT 04/03 A3025 RMK A01 T00410027  RH  092%=      5-min Rain = 0
KRLS 070905Z 35021G28KT 04/03 A3026 RMK A01 T00390025  RH  092%=      5-min Rain = 0
KRLS 070910Z 35021G26KT 04/02 A3026 RMK A01 T00370022  RH  092%=      5-min Rain = 0
KRLS 070915Z 36019G27KT 04/02 A3025 RMK A01 T00370021  RH  091%=      5-min Rain = 0
KRLS 070920Z 36019G25KT 04/02 A3025 RMK A01 T00360021  RH  091%=      5-min Rain = 0
KRLS 070925Z 35022G30KT 03/02 A3025 RMK A01 T00340018  RH  091%=      5-min Rain = 0
KRLS 070930Z 36019G25KT 03/02 A3025 RMK A01 T00330017  RH  090%=      5-min Rain = 0
KRLS 070935Z 36020G28KT 03/02 A3025 RMK A01 T00320016  RH  090%=      5-min Rain = 0
KRLS 070940Z 36021G28KT 03/01 A3025 RMK A01 T00300013  RH  090%=      5-min Rain = 0
KRLS 070945Z 00020G25KT 03/01 A3025 RMK A01 T00290013  RH  090%=      5-min Rain = 0.01
KRLS 070950Z 00020G30KT 03/01 A3025 RMK A01 T00290012  RH  090%=      5-min Rain = 0
KRLS 070955Z 00020G27KT 03/01 A3025 RMK A01 T00280012  RH  090%=      5-min Rain = 0
KRLS 071000Z 36020G26KT 03/01 A3025 RMK A01 T00270011  RH  090%=      5-min Rain = 0
KRLS 071005Z 36021G27KT 03/01 A3025 RMK A01 T00260010  RH  090%=      5-min Rain = 0
KRLS 071010Z 36022G30KT 03/01 A3025 RMK A01 T00250009  RH  090%=      5-min Rain = 0
KRLS 071015Z 00022G31KT 03/01 A3025 RMK A01 T00250009  RH  090%=      5-min Rain = 0
KRLS 071020Z 36019G27KT 02/01 A3025 RMK A01 T00240008  RH  090%=      5-min Rain = 0
KRLS 071025Z 00019G27KT 02/01 A3026 RMK A01 T00240009  RH  091%=      5-min Rain = 0
KRLS 071030Z 01019G26KT 03/01 A3026 RMK A01 T00250009  RH  091%=      5-min Rain = 0
KRLS 071035Z 01020G28KT 02/01 A3027 RMK A01 T00240008  RH  090%=      5-min Rain = 0
KRLS 071040Z 01023G33KT 02/01 A3026 RMK A01 T00220006  RH  090%=      5-min Rain = 0
KRLS 071045Z 00022G29KT 02/00 A3026 RMK A01 T00210003  RH  089%=      5-min Rain = 0
KRLS 071050Z 01022G30KT 02/00 A3027 RMK A01 T00210003  RH  089%=      5-min Rain = 0
KRLS 071055Z 01020G28KT 02/00 A3027 RMK A01 T00210003  RH  089%=      5-min Rain = 0
KRLS 071100Z 01020G29KT 02/00 A3027 RMK A01 T00200002  RH  089%=      5-min Rain = 0
KRLS 071105Z 01019G27KT 02/00 A3027 RMK A01 T00190002  RH  089%=      5-min Rain = 0
KRLS 071110Z 01020G29KT 02/00 A3027 RMK A01 T00190002  RH  089%=      5-min Rain = 0
KRLS 071115Z 01021G28KT 02/00 A3027 RMK A01 T00180000  RH  089%=      5-min Rain = 0
KRLS 071120Z 01022G31KT 02/00 A3027 RMK A01 T001700-0  RH  089%=      5-min Rain = 0
KRLS 071125Z 01023G30KT 02/M00 A3028 RMK A01 T00151002  RH  090%=      5-min Rain = 0
KRLS 071130Z 01021G29KT 02/M00 A3029 RMK A01 T00151002  RH  090%=      5-min Rain = 0
KRLS 071135Z 01020G27KT 02/M00 A303 RMK A01 T00161001  RH  090%=      5-min Rain = 0
KRLS 071140Z 01019G27KT 02/M00 A303 RMK A01 T00151001  RH  090%=      5-min Rain = 0
KRLS 071145Z 01019G25KT 02/M00 A3031 RMK A01 T00151001  RH  090%=      5-min Rain = 0
KRLS 071150Z 01022G29KT 01/M00 A3031 RMK A01 T00141003  RH  090%=      5-min Rain = 0
KRLS 071155Z 01022G31KT 01/M01 A3031 RMK A01 T00121005  RH  090%=      5-min Rain = 0
KRLS 071200Z 01020G28KT 01/M01 A3031 RMK A01 T00121005  RH  089%=      5-min Rain = 0
KRLS 071205Z 00022G27KT 01/M01 A3032 RMK A01 T00111006  RH  090%=      5-min Rain = 0
KRLS 071210Z 36020G26KT 01/M01 A3033 RMK A01 T00101006  RH  090%=      5-min Rain = 0
KRLS 071215Z 36019G26KT 01/M01 A3033 RMK A01 T00081008  RH  090%=      5-min Rain = 0
KRLS 071220Z 36020G25KT 01/M01 A3034 RMK A01 T00071010  RH  090%=      5-min Rain = 0
KRLS 071225Z 00020G27KT 01/M01 A3034 RMK A01 T00071010  RH  089%=      5-min Rain = 0
KRLS 071230Z 00021G29KT 01/M01 A3034 RMK A01 T00061011  RH  089%=      5-min Rain = 0
KRLS 071235Z 00021G26KT 01/M01 A3034 RMK A01 T00061012  RH  089%=      5-min Rain = 0
KRLS 071240Z 01019G27KT 01/M01 A3035 RMK A01 T00061012  RH  088%=      5-min Rain = 0
KRLS 071245Z 01021G29KT 01/M01 A3035 RMK A01 T00051013  RH  088%=      5-min Rain = 0
KRLS 071250Z 01018G23KT 01/M01 A3035 RMK A01 T00061012  RH  089%=      5-min Rain = 0
KRLS 071255Z 01019G29KT 01/M01 A3035 RMK A01 T00061011  RH  089%=      5-min Rain = 0
KRLS 071300Z 01019G28KT 01/M01 A3035 RMK A01 T00051012  RH  089%=      5-min Rain = 0.01
KRLS 071305Z 01018G24KT 01/M01 A3034 RMK A01 T00061011  RH  089%=      5-min Rain = 0
KRLS 071310Z 01017G22KT 01/M01 A3034 RMK A01 T00061010  RH  090%=      5-min Rain = 0
KRLS 071315Z 01018G23KT 01/M01 A3035 RMK A01 T00051011  RH  090%=      5-min Rain = 0
KRLS 071320Z 01015KT 01/M01 A3035 RMK A01 T00061010  RH  090%=      5-min Rain = 0
KRLS 071325Z 01019G25KT 01/M01 A3035 RMK A01 T00061009  RH  090%=      5-min Rain = 0
KRLS 071330Z 01019G24KT 01/M01 A3035 RMK A01 T00051010  RH  090%=      5-min Rain = 0
KRLS 071335Z 01019G24KT 01/M01 A3035 RMK A01 T00051010  RH  090%=      5-min Rain = 0
KRLS 071340Z 01017G23KT 01/M01 A3036 RMK A01 T00051010  RH  091%=      5-min Rain = 0
KRLS 071345Z 01017G26KT 01/M01 A3037 RMK A01 T00051010  RH  091%=      5-min Rain = 0
KRLS 071350Z 00017G23KT 00/M01 A3037 RMK A01 T00041011  RH  091%=      5-min Rain = 0
KRLS 071355Z 01017G22KT 00/M01 A3038 RMK A01 T00031011  RH  091%=      5-min Rain = 0
KRLS 071400Z 00015G21KT 00/M01 A3039 RMK A01 T00031011  RH  091%=      5-min Rain = 0
KRLS 071405Z 00014G21KT 00/M01 A304 RMK A01 T00031011  RH  091%=      5-min Rain = 0
KRLS 071410Z 36015G22KT 00/M01 A3041 RMK A01 T00021012  RH  092%=      5-min Rain = 0
KRLS 071415Z 00015G20KT 00/M01 A3041 RMK A01 T00021011  RH  092%=      5-min Rain = 0
KRLS 071420Z 01016G21KT 00/M01 A3041 RMK A01 T00021011  RH  092%=      5-min Rain = 0
KRLS 071425Z 01015G22KT 00/M01 A3041 RMK A01 T00021011  RH  092%=      5-min Rain = 0
KRLS 071430Z 01016G23KT 00/M01 A3041 RMK A01 T00021011  RH  092%=      5-min Rain = 0
KRLS 071435Z 01016G21KT 00/M01 A3042 RMK A01 T00011012  RH  092%=      5-min Rain = 0
KRLS 071440Z 01015G21KT 00/M01 A3042 RMK A01 T00021011  RH  092%=      5-min Rain = 0
KRLS 071445Z 01015G21KT 00/M01 A3042 RMK A01 T00011012  RH  092%=      5-min Rain = 0
KRLS 071450Z 01015G20KT 00/M01 A3042 RMK A01 T00011012  RH  092%=      5-min Rain = 0
KRLS 071455Z 01015G21KT 00/M01 A3042 RMK A01 T00011012  RH  092%=      5-min Rain = 0
KRLS 071500Z 01017G23KT 00/01 A3043 RMK A01 T00000-13  RH  092%=      5-min Rain = 0
KRLS 071505Z 02013G20KT 00/M01 A3043 RMK A01 T00021012  RH  092%=      5-min Rain = 0
KRLS 071510Z 01013G19KT 00/M01 A3044 RMK A01 T00021011  RH  092%=      5-min Rain = 0
KRLS 071515Z 01014G19KT 00/M01 A3044 RMK A01 T00021011  RH  092%=      5-min Rain = 0
KRLS 071520Z 02016G21KT 00/M01 A3043 RMK A01 T00031011  RH  091%=      5-min Rain = 0
KRLS 071525Z 01013G18KT 00/M01 A3045 RMK A01 T00031011  RH  091%=      5-min Rain = 0.01
KRLS 071530Z 01015KT 00/M01 A3045 RMK A01 T00031012  RH  091%=      5-min Rain = 0
KRLS 071535Z 01015G20KT 00/M01 A3044 RMK A01 T00031012  RH  090%=      5-min Rain = 0
KRLS 071540Z 02014G19KT 00/M01 A3044 RMK A01 T00041011  RH  090%=      5-min Rain = 0
KRLS 071545Z 02014G19KT 01/M01 A3044 RMK A01 T00051010  RH  091%=      5-min Rain = 0
KRLS 071550Z 01013G18KT 01/M01 A3045 RMK A01 T00051010  RH  091%=      5-min Rain = 0
KRLS 071555Z 01014G22KT 00/M01 A3045 RMK A01 T00041010  RH  091%=      5-min Rain = 0
KRLS 071600Z 03015G20KT 00/M01 A3045 RMK A01 T00041011  RH  091%=      5-min Rain = 0
KRLS 071605Z 02014G20KT 00/M01 A3045 RMK A01 T00041011  RH  091%=      5-min Rain = 0
KRLS 071610Z 02015KT 00/M01 A3045 RMK A01 T00031011  RH  091%=      5-min Rain = 0
KRLS 071615Z 02015G20KT 00/M01 A3045 RMK A01 T00031011  RH  091%=      5-min Rain = 0
KRLS 071620Z 02016G21KT 00/M01 A3045 RMK A01 T00031012  RH  091%=      5-min Rain = 0
KRLS 071625Z 01015G20KT 00/M01 A3046 RMK A01 T00031012  RH  091%=      5-min Rain = 0
KRLS 071630Z 01016G21KT 00/M01 A3046 RMK A01 T00021013  RH  091%=      5-min Rain = 0
KRLS 071635Z 01015G20KT 00/M01 A3046 RMK A01 T00031012  RH  091%=      5-min Rain = 0
KRLS 071640Z 02016G21KT 00/M01 A3047 RMK A01 T00031012  RH  091%=      5-min Rain = 0
KRLS 071645Z 02017KT 00/M01 A3047 RMK A01 T00021013  RH  091%=      5-min Rain = 0
KRLS 071650Z 02014G20KT 00/M01 A3046 RMK A01 T00041010  RH  091%=      5-min Rain = 0
KRLS 071655Z 02014G19KT 00/M01 A3046 RMK A01 T00041011  RH  091%=      5-min Rain = 0
KRLS 071700Z 02015G22KT 00/M01 A3046 RMK A01 T00031011  RH  091%=      5-min Rain = 0
KRLS 071705Z 02016G21KT 00/M01 A3045 RMK A01 T00031011  RH  091%=      5-min Rain = 0
KRLS 071710Z 02014G19KT 00/M01 A3046 RMK A01 T00031011  RH  091%=      5-min Rain = 0
KRLS 071715Z 01015G20KT 00/M01 A3047 RMK A01 T00041010  RH  091%=      5-min Rain = 0
KRLS 071720Z 02015G21KT 00/M01 A3047 RMK A01 T00041010  RH  091%=      5-min Rain = 0
KRLS 071725Z 01015KT 00/M01 A3047 RMK A01 T00041009  RH  092%=      5-min Rain = 0
KRLS 071730Z 01016G23KT 00/M01 A3046 RMK A01 T00021012  RH  091%=      5-min Rain = 0
KRLS 071735Z 02018G23KT 00/M01 A3045 RMK A01 T00011013  RH  091%=      5-min Rain = 0
KRLS 071740Z 02016G24KT 00/M01 A3045 RMK A01 T00011014  RH  091%=      5-min Rain = 0
KRLS 071745Z 01015G22KT 00/M01 A3045 RMK A01 T00011014  RH  091%=      5-min Rain = 0
KRLS 071750Z 01017G23KT 00/M01 A3045 RMK A01 T00011013  RH  091%=      5-min Rain = 0
KRLS 071755Z 01015G21KT 00/M01 A3045 RMK A01 T00021012  RH  091%=      5-min Rain = 0
KRLS 071800Z 01017G22KT 00/M01 A3045 RMK A01 T00021013  RH  091%=      5-min Rain = 0
KRLS 071805Z 01015G20KT 00/M01 A3045 RMK A01 T00031011  RH  091%=      5-min Rain = 0
KRLS 071810Z 02017KT 00/M01 A3045 RMK A01 T00021013  RH  091%=      5-min Rain = 0
KRLS 071815Z 03017G22KT 00/M01 A3044 RMK A01 T00021012  RH  091%=      5-min Rain = 0
KRLS 071820Z 01016G22KT 00/M01 A3044 RMK A01 T00021012  RH  091%=      5-min Rain = 0
KRLS 071825Z 01016G23KT 00/M01 A3044 RMK A01 T00021012  RH  091%=      5-min Rain = 0
KRLS 071830Z 01015G20KT 00/M01 A3044 RMK A01 T00041010  RH  092%=      5-min Rain = 0
KRLS 071835Z 01017KT 00/M01 A3043 RMK A01 T00031010  RH  092%=      5-min Rain = 0
KRLS 071840Z 01016G21KT 00/M01 A3043 RMK A01 T00031010  RH  092%=      5-min Rain = 0
KRLS 071845Z 01017G23KT 00/M01 A3042 RMK A01 T00031011  RH  091%=      5-min Rain = 0
KRLS 071850Z 01018KT 00/M01 A3042 RMK A01 T00021012  RH  091%=      5-min Rain = 0
KRLS 071855Z 00016G22KT 00/M01 A3042 RMK A01 T00021012  RH  091%=      5-min Rain = 0
KRLS 071900Z 01015G23KT 00/M01 A3043 RMK A01 T00021011  RH  091%=      5-min Rain = 0
KRLS 071905Z 01015G21KT 00/M01 A3043 RMK A01 T00021012  RH  092%=      5-min Rain = 0
KRLS 071910Z 00016G21KT 00/M01 A3043 RMK A01 T00011013  RH  092%=      5-min Rain = 0
KRLS 071915Z 36014G20KT M00/M02 A3043 RMK A01 T10021016  RH  092%=      5-min Rain = 0
KRLS 071920Z 00016G22KT M00/M02 A3043 RMK A01 T10021016  RH  091%=      5-min Rain = 0
KRLS 071925Z 01016G21KT M00/M02 A3043 RMK A01 T10021017  RH  091%=      5-min Rain = 0
KRLS 071930Z 01012G17KT 00/02 A3043 RMK A01 T00000-15  RH  090%=      5-min Rain = 0
KRLS 071935Z 01013G18KT 00/M01 A3042 RMK A01 T00011014  RH  090%=      5-min Rain = 0
KRLS 071940Z 00013G18KT 00/M01 A3042 RMK A01 T00011014  RH  090%=      5-min Rain = 0
KRLS 071945Z 35011KT 00/M01 A3043 RMK A01 T00011014  RH  091%=      5-min Rain = 0
KRLS 071950Z 35011G16KT 00/M01 A3043 RMK A01 T00011013  RH  091%=      5-min Rain = 0
KRLS 071955Z 36014KT 00/02 A3043 RMK A01 T00-00-15  RH  091%=      5-min Rain = 0
KRLS 072000Z 36013KT 00/01 A3043 RMK A01 T00000-14  RH  091%=      5-min Rain = 0
KRLS 072005Z 00013G19KT 00/M01 A3043 RMK A01 T00011014  RH  091%=      5-min Rain = 0
KRLS 072010Z 01014KT 00/M01 A3043 RMK A01 T00011013  RH  091%=      5-min Rain = 0
KRLS 072015Z 01014KT 00/M01 A3042 RMK A01 T00011013  RH  091%=      5-min Rain = 0
KRLS 072020Z 00014G19KT 00/M01 A3042 RMK A01 T00011013  RH  091%=      5-min Rain = 0
KRLS 072025Z 01015G20KT 00/01 A3042 RMK A01 T00000-14  RH  091%=      5-min Rain = 0
KRLS 072030Z 01015G20KT 00/M01 A3041 RMK A01 T00011013  RH  091%=      5-min Rain = 0
KRLS 072035Z 01013G18KT 00/M01 A3041 RMK A01 T00021012  RH  091%=      5-min Rain = 0
KRLS 072040Z 01014G19KT 00/M01 A3041 RMK A01 T00021011  RH  091%=      5-min Rain = 0
KRLS 072045Z 00013G19KT 00/M01 A304 RMK A01 T00021012  RH  092%=      5-min Rain = 0
KRLS 072050Z 36012G18KT 00/M01 A3041 RMK A01 T00011012  RH  092%=      5-min Rain = 0
KRLS 072055Z 36013KT 00/01 A3041 RMK A01 T00-00-13  RH  092%=      5-min Rain = 0
KRLS 072100Z 01014KT 00/01 A3041 RMK A01 T00-00-13  RH  092%=      5-min Rain = 0
KRLS 072105Z 01014KT 00/M01 A304 RMK A01 T00011012  RH  092%=      5-min Rain = 0
KRLS 072110Z 01015G20KT 00/01 A3041 RMK A01 T00000-13  RH  092%=      5-min Rain = 0
KRLS 072115Z 02014KT 00/01 A3041 RMK A01 T00000-13  RH  092%=      5-min Rain = 0
KRLS 072120Z 01014KT 00/M01 A3041 RMK A01 T00011012  RH  092%=      5-min Rain = 0
KRLS 072125Z 01012KT 00/M01 A3041 RMK A01 T00021011  RH  092%=      5-min Rain = 0
KRLS 072130Z 36010KT 00/M01 A3042 RMK A01 T00021011  RH  092%=      5-min Rain = 0
KRLS 072135Z 36010KT 00/M01 A3042 RMK A01 T00021011  RH  092%=      5-min Rain = 0
KRLS 072140Z 00011KT 00/M01 A3042 RMK A01 T00011012  RH  092%=      5-min Rain = 0
KRLS 072145Z 36011G16KT 00/M01 A3042 RMK A01 T00021010  RH  092%=      5-min Rain = 0
KRLS 072150Z 36010KT 00/M01 A3042 RMK A01 T00021010  RH  092%=      5-min Rain = 0
KRLS 072155Z 36010KT 00/M01 A3042 RMK A01 T00021010  RH  093%=      5-min Rain = 0
KRLS 072200Z 00010KT 00/M01 A3042 RMK A01 T00031009  RH  093%=      5-min Rain = 0
KRLS 072205Z 36011KT 00/M01 A3042 RMK A01 T00031009  RH  093%=      5-min Rain = 0
KRLS 072210Z 00010KT 00/M01 A3043 RMK A01 T00021010  RH  093%=      5-min Rain = 0
KRLS 072215Z 00010KT 00/M01 A3042 RMK A01 T00041008  RH  093%=      5-min Rain = 0
KRLS 072220Z 00010KT 01/M01 A3042 RMK A01 T00051007  RH  093%=      5-min Rain = 0
KRLS 072225Z 36009KT 01/M01 A3042 RMK A01 T00051006  RH  093%=      5-min Rain = 0
KRLS 072230Z 36008KT 01/M01 A3042 RMK A01 T00051007  RH  093%=      5-min Rain = 0
KRLS 072235Z 36009KT 00/M01 A3042 RMK A01 T00041008  RH  093%=      5-min Rain = 0
KRLS 072240Z 01011KT 01/M01 A3042 RMK A01 T00051007  RH  093%=      5-min Rain = 0
KRLS 072245Z 01012KT 01/M01 A3042 RMK A01 T00051007  RH  093%=      5-min Rain = 0
KRLS 072250Z 01012KT 01/M01 A3041 RMK A01 T00051006  RH  093%=      5-min Rain = 0
KRLS 072255Z 01012KT 01/M01 A3041 RMK A01 T00061006  RH  093%=      5-min Rain = 0
KRLS 072300Z 01012G17KT 01/M01 A3042 RMK A01 T00061006  RH  093%=      5-min Rain = 0
KRLS 072305Z 01012G17KT 01/M01 A3042 RMK A01 T00061005  RH  093%=      5-min Rain = 0
KRLS 072310Z 01013KT 01/M01 A3042 RMK A01 T00061005  RH  093%=      5-min Rain = 0
KRLS 072315Z 01012KT 01/M01 A3042 RMK A01 T00051006  RH  093%=      5-min Rain = 0
KRLS 072320Z 01013KT 00/M01 A3042 RMK A01 T00041007  RH  093%=      5-min Rain = 0
KRLS 072325Z 01013KT 00/M01 A3042 RMK A01 T00031008  RH  093%=      5-min Rain = 0.01
KRLS 072330Z 02012G17KT 00/M01 A3042 RMK A01 T00041007  RH  093%=      5-min Rain = 0
KRLS 072335Z 02011G16KT 01/M01 A3042 RMK A01 T00051006  RH  093%=      5-min Rain = 0
KRLS 072340Z 01009G14KT 01/M01 A3043 RMK A01 T00061005  RH  094%=      5-min Rain = 0
KRLS 072345Z 01012G17KT 01/M01 A3043 RMK A01 T00051006  RH  094%=      5-min Rain = 0
KRLS 072350Z 02012G17KT 00/M01 A3043 RMK A01 T00021009  RH  093%=      5-min Rain = 0
KRLS 072355Z 02012G18KT 00/M01 A3043 RMK A01 T00021009  RH  093%=      5-min Rain = 0
KRLS 080000Z 02011G16KT 00/M01 A3043 RMK A01 T00021009  RH  093%=      5-min Rain = 0
KRLS 080005Z 01008KT 00/M01 A3044 RMK A01 T00031009  RH  093%=      5-min Rain = 0
KRLS 080010Z 00010KT 00/M01 A3044 RMK A01 T00031009  RH  092%=      5-min Rain = 0
KRLS 080015Z 01009KT 00/M01 A3044 RMK A01 T00041009  RH  092%=      5-min Rain = 0
KRLS 080020Z 01011KT 01/M01 A3044 RMK A01 T00051009  RH  091%=      5-min Rain = 0
KRLS 080025Z 00009KT 01/M01 A3044 RMK A01 T00071008  RH  091%=      5-min Rain = 0
KRLS 080030Z 01009KT 01/M01 A3044 RMK A01 T00081007  RH  091%=      5-min Rain = 0
KRLS 080035Z 00010KT 01/M01 A3044 RMK A01 T00081007  RH  091%=      5-min Rain = 0
KRLS 080040Z 01009KT 01/M01 A3044 RMK A01 T00061009  RH  090%=      5-min Rain = 0
KRLS 080045Z 01009KT 01/M01 A3044 RMK A01 T00061010  RH  090%=      5-min Rain = 0
KRLS 080050Z 01010KT 01/M01 A3044 RMK A01 T00051012  RH  089%=      5-min Rain = 0
KRLS 080055Z 01010KT 01/M01 A3045 RMK A01 T00051014  RH  088%=      5-min Rain = 0
KRLS 080100Z 01008KT 01/M01 A3045 RMK A01 T00061014  RH  087%=      5-min Rain = 0
KRLS 080105Z 01008KT 01/M01 A3045 RMK A01 T00061014  RH  087%=      5-min Rain = 0
KRLS 080110Z 01008KT 01/M02 A3045 RMK A01 T00071015  RH  087%=      5-min Rain = 0
KRLS 080115Z 01009KT 01/M01 A3045 RMK A01 T00081014  RH  086%=      5-min Rain = 0
KRLS 080120Z 01009KT 01/M01 A3045 RMK A01 T00081014  RH  086%=      5-min Rain = 0
KRLS 080125Z 02009KT 01/M01 A3045 RMK A01 T00081014  RH  086%=      5-min Rain = 0
KRLS 080130Z 02011KT 01/M02 A3045 RMK A01 T00081015  RH  086%=      5-min Rain = 0
KRLS 080135Z 01011KT 01/M02 A3045 RMK A01 T00081016  RH  085%=      5-min Rain = 0
KRLS 080140Z 02011KT 01/M02 A3045 RMK A01 T00081016  RH  085%=      5-min Rain = 0
KRLS 080145Z 02012KT 01/M02 A3044 RMK A01 T00071017  RH  084%=      5-min Rain = 0
KRLS 080150Z 02011KT 01/M02 A3044 RMK A01 T00081016  RH  085%=      5-min Rain = 0
KRLS 080155Z 01011KT 01/M02 A3044 RMK A01 T00081015  RH  085%=      5-min Rain = 0
KRLS 080200Z 01011KT 01/M02 A3045 RMK A01 T00071017  RH  084%=      5-min Rain = 0
KRLS 080205Z 02013KT 01/M02 A3044 RMK A01 T00071019  RH  084%=      5-min Rain = 0
KRLS 080210Z 02012KT 01/M02 A3045 RMK A01 T00071019  RH  083%=      5-min Rain = 0
KRLS 080215Z 02010KT 01/M02 A3045 RMK A01 T00071018  RH  084%=      5-min Rain = 0
KRLS 080220Z 02009G14KT 01/M02 A3045 RMK A01 T00071016  RH  085%=      5-min Rain = 0
KRLS 080225Z 01010KT 01/M02 A3045 RMK A01 T00071016  RH  085%=      5-min Rain = 0
KRLS 080230Z 01011KT 01/M02 A3045 RMK A01 T00061018  RH  084%=      5-min Rain = 0
KRLS 080235Z 02011KT 01/M02 A3045 RMK A01 T00061020  RH  084%=      5-min Rain = 0
KRLS 080240Z 02010KT 01/M02 A3045 RMK A01 T00061020  RH  084%=      5-min Rain = 0
KRLS 080245Z 02009KT 01/M02 A3045 RMK A01 T00061019  RH  084%=      5-min Rain = 0
KRLS 080250Z 02009KT 01/M02 A3045 RMK A01 T00061020  RH  083%=      5-min Rain = 0
KRLS 080255Z 02007KT 01/M02 A3046 RMK A01 T00071019  RH  083%=      5-min Rain = 0
KRLS 080300Z 01008KT 01/M02 A3046 RMK A01 T00071019  RH  083%=      5-min Rain = 0
KRLS 080305Z 02008KT 01/M02 A3046 RMK A01 T00071019  RH  083%=      5-min Rain = 0
KRLS 080310Z 02007KT 01/M02 A3046 RMK A01 T00081018  RH  084%=      5-min Rain = 0
KRLS 080315Z 02007G12KT 01/M02 A3046 RMK A01 T00081018  RH  084%=      5-min Rain = 0
KRLS 080320Z 01006KT 01/M02 A3047 RMK A01 T00091016  RH  084%=      5-min Rain = 0
KRLS 080325Z 00006KT 01/M02 A3047 RMK A01 T00091015  RH  085%=      5-min Rain = 0
KRLS 080330Z 00007KT 01/M02 A3047 RMK A01 T00091015  RH  084%=      5-min Rain = 0
KRLS 080335Z 36006KT 01/M01 A3047 RMK A01 T00101014  RH  085%=      5-min Rain = 0
KRLS 080340Z 01006KT 01/M01 A3047 RMK A01 T00101014  RH  085%=      5-min Rain = 0
KRLS 080345Z 36007KT 01/M01 A3047 RMK A01 T00101014  RH  085%=      5-min Rain = 0
KRLS 080350Z 00008KT 01/M02 A3047 RMK A01 T00091017  RH  084%=      5-min Rain = 0
KRLS 080355Z 01008KT 01/M02 A3047 RMK A01 T00091018  RH  083%=      5-min Rain = 0
KRLS 080400Z 01008KT 01/M02 A3047 RMK A01 T00091018  RH  083%=      5-min Rain = 0
KRLS 080405Z 01010KT 01/M02 A3047 RMK A01 T00081020  RH  082%=      5-min Rain = 0
KRLS 080410Z 01008KT 01/M02 A3047 RMK A01 T00081021  RH  082%=      5-min Rain = 0
KRLS 080415Z 01008KT 01/M02 A3047 RMK A01 T00081021  RH  082%=      5-min Rain = 0
KRLS 080420Z 01008KT 01/M02 A3047 RMK A01 T00081021  RH  082%=      5-min Rain = 0
KRLS 080425Z 02008KT 01/M02 A3047 RMK A01 T00071022  RH  081%=      5-min Rain = 0
KRLS 080430Z 01007KT 01/M02 A3048 RMK A01 T00071022  RH  081%=      5-min Rain = 0
KRLS 080435Z 01007KT 01/M02 A3048 RMK A01 T00081022  RH  081%=      5-min Rain = 0
KRLS 080440Z 01006KT 01/M02 A3047 RMK A01 T00081020  RH  082%=      5-min Rain = 0
KRLS 080445Z 01006KT 01/M02 A3047 RMK A01 T00081021  RH  082%=      5-min Rain = 0
KRLS 080450Z 01008KT 01/M02 A3047 RMK A01 T00081021  RH  081%=      5-min Rain = 0
KRLS 080455Z 02007KT 01/M02 A3047 RMK A01 T00091021  RH  081%=      5-min Rain = 0
KRLS 080500Z 01008KT 01/M02 A3047 RMK A01 T00091019  RH  082%=      5-min Rain = 0
KRLS 080505Z 01007KT 01/M02 A3047 RMK A01 T00101019  RH  082%=      5-min Rain = 0
KRLS 080510Z 01008KT 01/M02 A3047 RMK A01 T00101019  RH  082%=      5-min Rain = 0
KRLS 080515Z 01008KT 01/M02 A3047 RMK A01 T00101020  RH  081%=      5-min Rain = 0
KRLS 080520Z 01008KT 01/M02 A3047 RMK A01 T00101020  RH  081%=      5-min Rain = 0
KRLS 080525Z 01008KT 01/M02 A3047 RMK A01 T00091021  RH  081%=      5-min Rain = 0
KRLS 080530Z 01008KT 01/M02 A3046 RMK A01 T00101021  RH  081%=      5-min Rain = 0
KRLS 080535Z 02008KT 01/M02 A3046 RMK A01 T00101020  RH  081%=      5-min Rain = 0
KRLS 080540Z 01008KT 01/M02 A3046 RMK A01 T00101021  RH  081%=      5-min Rain = 0
KRLS 080545Z 01008KT 01/M02 A3046 RMK A01 T00101022  RH  080%=      5-min Rain = 0
KRLS 080550Z 01008KT 01/M02 A3046 RMK A01 T00101023  RH  079%=      5-min Rain = 0
KRLS 080555Z 01008KT 01/M02 A3045 RMK A01 T00101023  RH  079%=      5-min Rain = 0

Page generated in 0.0157 seconds.